createdAt,value
2022-10-13T00:00:16.914Z,20.87
2022-10-13T00:05:19.239Z,20.94
2022-10-13T00:10:21.028Z,20.83
2022-10-13T00:15:26.141Z,20.73
2022-10-13T00:20:27.936Z,20.82
2022-10-13T00:25:29.705Z,20.78
2022-10-13T00:30:35.135Z,20.78
2022-10-13T00:35:45.412Z,20.85
2022-10-13T00:40:55.522Z,20.84
2022-10-13T00:45:57.323Z,20.80
2022-10-13T00:50:59.201Z,20.86
2022-10-13T00:56:01.416Z,20.90
2022-10-13T01:01:04.756Z,20.91
2022-10-13T01:06:08.335Z,20.84
2022-10-13T01:11:32.156Z,20.88
2022-10-13T01:16:55.725Z,20.84
2022-10-13T01:22:09.603Z,20.78
2022-10-13T01:27:20.140Z,20.84
2022-10-13T01:32:38.969Z,20.87
2022-10-13T01:38:08.217Z,20.79
2022-10-13T01:43:25.353Z,20.84
2022-10-13T01:48:28.831Z,20.85
2022-10-13T01:53:31.108Z,20.78
2022-10-13T01:58:35.874Z,20.76
2022-10-13T02:04:06.711Z,20.74
2022-10-13T02:09:21.403Z,20.81
2022-10-13T02:14:30.314Z,20.76
2022-10-13T02:19:36.342Z,20.77
2022-10-13T02:24:38.372Z,20.81
2022-10-13T02:29:54.108Z,20.82
2022-10-13T02:34:56.046Z,20.81
2022-10-13T02:39:57.942Z,20.79
2022-10-13T02:44:59.858Z,20.85
2022-10-13T02:50:01.823Z,20.85
2022-10-13T02:55:04.177Z,20.88
2022-10-13T03:00:07.457Z,20.77
2022-10-13T03:05:10.002Z,20.83
2022-10-13T03:10:12.157Z,20.71
2022-10-13T03:15:14.335Z,20.84
2022-10-13T03:20:16.504Z,20.78
2022-10-13T03:25:18.364Z,20.75
2022-10-13T03:30:20.251Z,20.77
2022-10-13T03:35:22.009Z,20.81
2022-10-13T03:40:25.026Z,20.80
2022-10-13T03:45:27.105Z,20.80
2022-10-13T03:50:29.158Z,20.84
2022-10-13T03:55:30.970Z,20.82
2022-10-13T04:00:32.813Z,20.86
2022-10-13T04:05:35.035Z,20.84
2022-10-13T04:10:37.093Z,20.82
2022-10-13T04:15:40.219Z,20.78
2022-10-13T04:20:42.007Z,20.71
2022-10-13T04:25:43.959Z,20.79
2022-10-13T04:30:49.407Z,20.77
2022-10-13T04:35:52.196Z,20.77
2022-10-13T04:40:54.042Z,20.85
2022-10-13T04:46:05.775Z,20.71
2022-10-13T04:51:10.765Z,20.83
2022-10-13T04:56:15.925Z,20.81
2022-10-13T05:01:22.653Z,20.81
2022-10-13T05:06:30.418Z,20.84
2022-10-13T05:11:32.555Z,20.82
2022-10-13T05:16:34.813Z,20.75
2022-10-13T05:21:36.680Z,20.84
2022-10-13T05:26:38.780Z,20.77
2022-10-13T05:31:41.463Z,20.75
2022-10-13T05:36:43.350Z,20.83
2022-10-13T05:41:45.214Z,20.79
2022-10-13T05:46:47.186Z,20.78
2022-10-13T05:51:55.734Z,20.71
2022-10-13T05:57:04.947Z,20.69
2022-10-13T06:02:09.323Z,20.81
2022-10-13T06:07:12.469Z,20.76
2022-10-13T06:12:14.829Z,20.71
2022-10-13T06:17:16.633Z,20.81
2022-10-13T06:22:19.020Z,20.94
2022-10-13T06:27:20.941Z,20.91
2022-10-13T06:32:23.130Z,20.92
2022-10-13T06:37:27.479Z,20.89
2022-10-13T06:42:31.974Z,20.91
2022-10-13T06:47:33.836Z,20.91
2022-10-13T06:52:35.608Z,20.96
2022-10-13T06:57:37.547Z,20.92
2022-10-13T07:02:39.839Z,20.96
2022-10-13T07:07:41.941Z,20.68
2022-10-13T07:12:43.920Z,20.79
2022-10-13T07:17:45.795Z,20.88
2022-10-13T07:22:48.110Z,20.91
2022-10-13T07:27:50.356Z,20.94
2022-10-13T07:32:52.566Z,20.93
2022-10-13T07:37:54.418Z,20.96
2022-10-13T07:42:57.416Z,20.85
2022-10-13T07:47:59.440Z,20.83
2022-10-13T07:53:01.486Z,20.89
2022-10-13T07:58:03.892Z,20.87
2022-10-13T08:03:05.859Z,20.78
2022-10-13T08:08:07.824Z,20.90
2022-10-13T08:13:11.369Z,20.97
2022-10-13T08:18:14.887Z,21.02
2022-10-13T08:23:16.943Z,20.92
2022-10-13T08:28:21.165Z,20.98
2022-10-13T08:33:23.301Z,20.97
2022-10-13T08:38:25.802Z,21.01
2022-10-13T08:43:28.315Z,20.99
2022-10-13T08:48:33.632Z,21.02
2022-10-13T08:53:40.125Z,20.97
2022-10-13T08:58:43.379Z,21.00
2022-10-13T09:04:22.620Z,20.90
2022-10-13T09:09:24.918Z,21.00
2022-10-13T09:14:29.600Z,20.95
2022-10-13T09:19:36.716Z,20.98
2022-10-13T09:24:38.959Z,20.96
2022-10-13T09:29:41.867Z,21.01
2022-10-13T09:34:44.263Z,21.04
2022-10-13T09:39:46.176Z,20.73
2022-10-13T09:44:57.077Z,20.59
2022-10-13T09:50:16.405Z,20.70
2022-10-13T09:55:34.966Z,20.83
2022-10-13T10:00:37.687Z,20.87
2022-10-13T10:05:58.182Z,20.85
2022-10-13T10:11:10.096Z,20.84
2022-10-13T10:16:20.834Z,20.83
2022-10-13T10:21:44.244Z,20.82
2022-10-13T10:26:56.322Z,20.82
2022-10-13T10:32:16.585Z,20.85
2022-10-13T10:37:28.294Z,20.85
2022-10-13T10:43:34.861Z,20.83
2022-10-13T10:48:39.503Z,20.94
2022-10-13T10:54:04.338Z,20.93
2022-10-13T10:59:43.035Z,20.95
2022-10-13T11:04:50.101Z,20.99
2022-10-13T11:09:57.519Z,20.94
2022-10-13T11:15:14.594Z,20.97
2022-10-13T11:20:20.131Z,20.89
2022-10-13T11:25:37.501Z,20.99
2022-10-13T11:30:53.011Z,20.92
2022-10-13T11:35:55.163Z,20.98
2022-10-13T11:41:25.408Z,20.95
2022-10-13T11:46:31.858Z,20.90
2022-10-13T11:51:52.224Z,20.98
2022-10-13T11:56:57.193Z,20.96
2022-10-13T12:02:06.261Z,20.86
2022-10-13T12:07:11.064Z,20.96
2022-10-13T12:12:19.054Z,21.04
2022-10-13T12:17:27.579Z,20.95
2022-10-13T12:22:30.816Z,20.82
2022-10-13T12:27:42.938Z,20.89
2022-10-13T12:32:50.781Z,20.92
2022-10-13T12:37:53.992Z,20.98
2022-10-13T12:42:56.251Z,20.83
2022-10-13T12:47:58.284Z,20.99
2022-10-13T12:53:14.368Z,20.95
2022-10-13T12:58:22.918Z,21.02
2022-10-13T13:03:28.839Z,21.02
2022-10-13T13:08:34.157Z,21.05
2022-10-13T13:13:36.201Z,21.05
2022-10-13T13:18:42.852Z,21.12
2022-10-13T13:23:51.190Z,20.98
2022-10-13T13:28:57.249Z,21.06
2022-10-13T13:33:59.161Z,20.82
2022-10-13T13:39:01.072Z,20.96
2022-10-13T13:44:03.369Z,21.03
2022-10-13T13:49:05.228Z,21.02
2022-10-13T13:54:07.043Z,20.99
2022-10-13T13:59:09.184Z,20.91
2022-10-13T14:04:11.193Z,20.98
2022-10-13T14:09:13.061Z,21.02
2022-10-13T14:14:14.955Z,21.08
2022-10-13T14:19:16.996Z,21.02
2022-10-13T14:24:19.750Z,21.04
2022-10-13T14:29:22.083Z,21.01
2022-10-13T14:34:24.037Z,21.05
2022-10-13T14:39:26.110Z,21.02
2022-10-13T14:44:28.005Z,21.04
2022-10-13T14:49:29.810Z,21.10
2022-10-13T14:54:31.917Z,21.10
2022-10-13T14:59:34.025Z,21.03
2022-10-13T15:04:36.026Z,21.02
2022-10-13T15:09:52.092Z,21.10
2022-10-13T15:14:54.907Z,20.98
2022-10-13T15:19:56.907Z,20.98
2022-10-13T15:24:59.008Z,20.96
2022-10-13T15:30:00.940Z,21.04
2022-10-13T15:35:03.128Z,21.08
2022-10-13T15:40:05.247Z,20.97
2022-10-13T15:45:10.454Z,21.14
2022-10-13T15:50:12.830Z,21.00
2022-10-13T15:55:14.745Z,21.04
2022-10-13T16:00:16.797Z,21.03
2022-10-13T16:05:19.487Z,20.98
2022-10-13T16:10:21.312Z,21.00
2022-10-13T16:15:23.871Z,20.99
2022-10-13T16:20:26.386Z,20.96
2022-10-13T16:25:29.751Z,21.02
2022-10-13T16:30:31.664Z,21.05
2022-10-13T16:35:34.641Z,20.96
2022-10-13T16:40:39.268Z,20.95
2022-10-13T16:45:59.324Z,21.07
2022-10-13T16:51:08.873Z,21.01
2022-10-13T16:56:10.910Z,20.97
2022-10-13T17:01:13.752Z,20.94
2022-10-13T17:06:15.926Z,20.94
2022-10-13T17:11:23.977Z,20.84
2022-10-13T17:16:27.163Z,20.97
2022-10-13T17:21:29.177Z,20.94
2022-10-13T17:26:32.130Z,21.00
2022-10-13T17:31:33.931Z,21.01
2022-10-13T17:36:36.179Z,20.86
2022-10-13T17:41:38.269Z,20.96
2022-10-13T17:46:40.437Z,20.92
2022-10-13T17:51:43.399Z,20.91
2022-10-13T17:56:48.838Z,20.90
2022-10-13T18:01:50.769Z,20.96
2022-10-13T18:06:53.372Z,21.02
2022-10-13T18:11:55.438Z,21.02
2022-10-13T18:16:57.342Z,20.98
2022-10-13T18:21:59.047Z,20.98
2022-10-13T18:27:01.030Z,20.94
2022-10-13T18:32:03.258Z,20.99
2022-10-13T18:37:05.792Z,20.91
2022-10-13T18:42:08.224Z,21.01
2022-10-13T18:47:10.072Z,20.96
2022-10-13T18:52:12.430Z,21.00
2022-10-13T18:57:14.298Z,20.98
2022-10-13T19:02:16.401Z,20.99
2022-10-13T19:07:18.665Z,20.94
2022-10-13T19:12:20.715Z,20.96
2022-10-13T19:17:23.458Z,20.93
2022-10-13T19:22:25.541Z,20.83
2022-10-13T19:27:28.102Z,20.96
2022-10-13T19:32:29.902Z,20.91
2022-10-13T19:37:32.411Z,21.04
2022-10-13T19:42:34.373Z,20.99
2022-10-13T19:47:36.182Z,21.03
2022-10-13T19:52:37.903Z,20.94
2022-10-13T19:57:39.674Z,21.01
2022-10-13T20:02:41.530Z,20.92
2022-10-13T20:07:43.480Z,21.01
2022-10-13T20:12:45.227Z,21.01
2022-10-13T20:17:47.108Z,21.04
2022-10-13T20:22:48.906Z,21.03
2022-10-13T20:27:51.005Z,21.04
2022-10-13T20:32:52.941Z,20.99
2022-10-13T20:37:55.158Z,21.06
2022-10-13T20:42:56.979Z,21.02
2022-10-13T20:47:58.807Z,21.06
2022-10-13T20:53:00.627Z,21.06
2022-10-13T20:58:02.415Z,21.09
2022-10-13T21:03:04.397Z,21.05
2022-10-13T21:08:06.287Z,21.01
2022-10-13T21:13:08.227Z,21.06
2022-10-13T21:18:11.216Z,21.04
2022-10-13T21:23:13.200Z,21.01
2022-10-13T21:28:15.199Z,21.04
2022-10-13T21:33:17.264Z,21.04
2022-10-13T21:38:19.067Z,21.06
2022-10-13T21:43:20.990Z,21.11
2022-10-13T21:48:26.046Z,21.10
2022-10-13T21:53:27.991Z,21.02
2022-10-13T21:58:29.960Z,21.11
2022-10-13T22:03:32.756Z,21.11
2022-10-13T22:08:39.292Z,21.02
2022-10-13T22:13:41.278Z,21.05
2022-10-13T22:18:43.428Z,21.08
2022-10-13T22:23:45.788Z,21.05
2022-10-13T22:28:51.670Z,21.07
2022-10-13T22:33:55.018Z,21.13
2022-10-13T22:38:59.747Z,21.09
2022-10-13T22:44:02.211Z,21.08
2022-10-13T22:49:05.445Z,21.11
2022-10-13T22:54:07.602Z,21.09
2022-10-13T22:59:09.664Z,21.11
2022-10-13T23:04:11.913Z,21.13
2022-10-13T23:09:14.355Z,21.11
2022-10-13T23:14:16.271Z,21.12
2022-10-13T23:19:19.792Z,21.12
2022-10-13T23:24:21.875Z,21.09
2022-10-13T23:29:23.859Z,21.10
2022-10-13T23:34:26.296Z,21.06
2022-10-13T23:39:29.745Z,21.08
2022-10-13T23:44:31.704Z,21.11
2022-10-13T23:49:33.489Z,21.11
2022-10-13T23:54:35.494Z,21.06
2022-10-13T23:59:37.479Z,21.11
